sensor_id;sensor_type;location;lat;lon;timestamp;temperature;humidity
4097;DHT22;2062;50.694;7.246;2023-05-13T00:01:01;13.90;57.50
4097;DHT22;2062;50.694;7.246;2023-05-13T00:03:28;13.90;57.40
4097;DHT22;2062;50.694;7.246;2023-05-13T00:05:55;13.90;57.40
4097;DHT22;2062;50.694;7.246;2023-05-13T00:08:22;13.90;57.40
4097;DHT22;2062;50.694;7.246;2023-05-13T00:10:48;13.90;57.40
4097;DHT22;2062;50.694;7.246;2023-05-13T00:13:15;13.90;57.30
4097;DHT22;2062;50.694;7.246;2023-05-13T00:15:44;13.80;57.50
4097;DHT22;2062;50.694;7.246;2023-05-13T00:18:10;13.80;57.50
4097;DHT22;2062;50.694;7.246;2023-05-13T00:20:37;13.80;57.50
4097;DHT22;2062;50.694;7.246;2023-05-13T00:23:04;13.80;57.50
4097;DHT22;2062;50.694;7.246;2023-05-13T00:25:32;13.80;57.60
4097;DHT22;2062;50.694;7.246;2023-05-13T00:27:59;13.80;57.60
4097;DHT22;2062;50.694;7.246;2023-05-13T00:30:25;13.80;57.70
4097;DHT22;2062;50.694;7.246;2023-05-13T00:32:54;13.80;57.80
4097;DHT22;2062;50.694;7.246;2023-05-13T00:35:20;13.80;57.90
4097;DHT22;2062;50.694;7.246;2023-05-13T00:37:47;13.80;57.80
4097;DHT22;2062;50.694;7.246;2023-05-13T00:40:19;13.80;57.90
4097;DHT22;2062;50.694;7.246;2023-05-13T00:42:46;13.80;57.90
4097;DHT22;2062;50.694;7.246;2023-05-13T00:45:13;13.80;57.90
4097;DHT22;2062;50.694;7.246;2023-05-13T00:47:40;13.80;57.80
4097;DHT22;2062;50.694;7.246;2023-05-13T00:50:10;13.80;58.00
4097;DHT22;2062;50.694;7.246;2023-05-13T00:52:38;13.80;58.00
4097;DHT22;2062;50.694;7.246;2023-05-13T00:55:06;13.70;57.90
4097;DHT22;2062;50.694;7.246;2023-05-13T00:57:33;13.80;58.00
4097;DHT22;2062;50.694;7.246;2023-05-13T01:00:01;13.70;58.10
4097;DHT22;2062;50.694;7.246;2023-05-13T01:02:32;13.70;58.10
4097;DHT22;2062;50.694;7.246;2023-05-13T01:05:06;13.70;58.20
4097;DHT22;2062;50.694;7.246;2023-05-13T01:07:43;13.70;58.20
4097;DHT22;2062;50.694;7.246;2023-05-13T01:10:16;13.70;58.30
4097;DHT22;2062;50.694;7.246;2023-05-13T01:12:45;13.70;58.40
4097;DHT22;2062;50.694;7.246;2023-05-13T01:15:14;13.70;58.50
4097;DHT22;2062;50.694;7.246;2023-05-13T01:17:48;13.70;58.50
4097;DHT22;2062;50.694;7.246;2023-05-13T01:20:17;13.60;58.50
4097;DHT22;2062;50.694;7.246;2023-05-13T01:22:47;13.60;58.40
4097;DHT22;2062;50.694;7.246;2023-05-13T01:25:14;13.60;58.40
4097;DHT22;2062;50.694;7.246;2023-05-13T01:27:41;13.60;58.40
4097;DHT22;2062;50.694;7.246;2023-05-13T01:30:09;13.50;58.50
4097;DHT22;2062;50.694;7.246;2023-05-13T01:32:37;13.50;58.50
4097;DHT22;2062;50.694;7.246;2023-05-13T01:35:05;13.50;58.50
4097;DHT22;2062;50.694;7.246;2023-05-13T01:37:33;13.40;58.50
4097;DHT22;2062;50.694;7.246;2023-05-13T01:40:03;13.40;58.50
4097;DHT22;2062;50.694;7.246;2023-05-13T01:42:32;13.40;58.60
4097;DHT22;2062;50.694;7.246;2023-05-13T01:44:59;13.30;58.60
4097;DHT22;2062;50.694;7.246;2023-05-13T01:47:26;13.30;58.70
4097;DHT22;2062;50.694;7.246;2023-05-13T01:49:53;13.30;58.60
4097;DHT22;2062;50.694;7.246;2023-05-13T01:52:19;13.20;58.50
4097;DHT22;2062;50.694;7.246;2023-05-13T01:54:46;13.20;58.50
4097;DHT22;2062;50.694;7.246;2023-05-13T01:57:14;13.20;58.50
4097;DHT22;2062;50.694;7.246;2023-05-13T01:59:41;13.10;58.30
4097;DHT22;2062;50.694;7.246;2023-05-13T02:02:08;13.10;58.40
4097;DHT22;2062;50.694;7.246;2023-05-13T02:04:35;13.10;58.60
4097;DHT22;2062;50.694;7.246;2023-05-13T02:07:02;13.00;58.60
4097;DHT22;2062;50.694;7.246;2023-05-13T02:09:29;13.00;58.80
4097;DHT22;2062;50.694;7.246;2023-05-13T02:11:56;12.90;58.80
4097;DHT22;2062;50.694;7.246;2023-05-13T02:14:24;12.90;58.90
4097;DHT22;2062;50.694;7.246;2023-05-13T02:16:50;12.90;58.90
4097;DHT22;2062;50.694;7.246;2023-05-13T02:19:17;12.80;58.80
4097;DHT22;2062;50.694;7.246;2023-05-13T02:21:45;12.80;58.90
4097;DHT22;2062;50.694;7.246;2023-05-13T02:24:11;12.70;58.90
4097;DHT22;2062;50.694;7.246;2023-05-13T02:26:39;12.70;59.70
4097;DHT22;2062;50.694;7.246;2023-05-13T02:29:06;12.70;59.00
4097;DHT22;2062;50.694;7.246;2023-05-13T02:31:34;12.70;59.30
4097;DHT22;2062;50.694;7.246;2023-05-13T02:34:02;12.70;59.20
4097;DHT22;2062;50.694;7.246;2023-05-13T02:36:29;12.70;59.20
4097;DHT22;2062;50.694;7.246;2023-05-13T02:38:56;12.60;59.00
4097;DHT22;2062;50.694;7.246;2023-05-13T02:41:23;12.60;59.30
4097;DHT22;2062;50.694;7.246;2023-05-13T02:43:50;12.60;59.30
4097;DHT22;2062;50.694;7.246;2023-05-13T02:46:16;12.50;59.50
4097;DHT22;2062;50.694;7.246;2023-05-13T02:48:45;12.50;59.60
4097;DHT22;2062;50.694;7.246;2023-05-13T02:51:11;12.50;59.80
4097;DHT22;2062;50.694;7.246;2023-05-13T02:53:38;12.50;59.60
4097;DHT22;2062;50.694;7.246;2023-05-13T02:56:05;12.50;59.90
4097;DHT22;2062;50.694;7.246;2023-05-13T02:58:33;12.40;59.90
4097;DHT22;2062;50.694;7.246;2023-05-13T03:01:00;12.40;59.80
4097;DHT22;2062;50.694;7.246;2023-05-13T03:03:27;12.50;60.10
4097;DHT22;2062;50.694;7.246;2023-05-13T03:05:55;12.40;60.20
4097;DHT22;2062;50.694;7.246;2023-05-13T03:08:22;12.40;60.30
4097;DHT22;2062;50.694;7.246;2023-05-13T03:10:50;12.30;60.30
4097;DHT22;2062;50.694;7.246;2023-05-13T03:13:17;12.30;60.90
4097;DHT22;2062;50.694;7.246;2023-05-13T03:15:44;12.40;60.10
4097;DHT22;2062;50.694;7.246;2023-05-13T03:18:11;12.30;60.50
4097;DHT22;2062;50.694;7.246;2023-05-13T03:20:37;12.30;60.20
4097;DHT22;2062;50.694;7.246;2023-05-13T03:23:05;12.30;60.10
4097;DHT22;2062;50.694;7.246;2023-05-13T03:25:32;12.30;60.10
4097;DHT22;2062;50.694;7.246;2023-05-13T03:27:59;12.30;60.00
4097;DHT22;2062;50.694;7.246;2023-05-13T03:30:26;12.30;60.10
4097;DHT22;2062;50.694;7.246;2023-05-13T03:32:53;12.30;61.10
4097;DHT22;2062;50.694;7.246;2023-05-13T03:35:20;12.30;60.30
4097;DHT22;2062;50.694;7.246;2023-05-13T03:37:47;12.20;60.00
4097;DHT22;2062;50.694;7.246;2023-05-13T03:40:16;12.20;60.00
4097;DHT22;2062;50.694;7.246;2023-05-13T03:42:43;12.20;60.20
4097;DHT22;2062;50.694;7.246;2023-05-13T03:45:10;12.20;60.20
4097;DHT22;2062;50.694;7.246;2023-05-13T03:47:37;12.20;60.20
4097;DHT22;2062;50.694;7.246;2023-05-13T03:50:05;12.20;60.20
4097;DHT22;2062;50.694;7.246;2023-05-13T03:52:32;12.10;60.20
4097;DHT22;2062;50.694;7.246;2023-05-13T03:54:59;12.10;60.50
4097;DHT22;2062;50.694;7.246;2023-05-13T03:57:27;12.10;60.50
4097;DHT22;2062;50.694;7.246;2023-05-13T03:59:54;12.00;60.70
4097;DHT22;2062;50.694;7.246;2023-05-13T04:02:21;12.00;60.90
4097;DHT22;2062;50.694;7.246;2023-05-13T04:04:48;12.00;61.10
4097;DHT22;2062;50.694;7.246;2023-05-13T04:07:15;12.00;61.10
4097;DHT22;2062;50.694;7.246;2023-05-13T04:09:42;12.00;61.00
4097;DHT22;2062;50.694;7.246;2023-05-13T04:12:08;12.00;60.90
4097;DHT22;2062;50.694;7.246;2023-05-13T04:14:37;12.00;61.00
4097;DHT22;2062;50.694;7.246;2023-05-13T04:17:04;12.00;61.10
4097;DHT22;2062;50.694;7.246;2023-05-13T04:19:31;12.00;61.10
4097;DHT22;2062;50.694;7.246;2023-05-13T04:21:58;12.00;61.10
4097;DHT22;2062;50.694;7.246;2023-05-13T04:24:25;11.90;61.10
4097;DHT22;2062;50.694;7.246;2023-05-13T04:26:52;11.90;61.30
4097;DHT22;2062;50.694;7.246;2023-05-13T04:29:18;11.90;61.50
4097;DHT22;2062;50.694;7.246;2023-05-13T04:31:46;11.90;61.50
4097;DHT22;2062;50.694;7.246;2023-05-13T04:34:13;11.90;61.60
4097;DHT22;2062;50.694;7.246;2023-05-13T04:36:40;11.90;61.70
4097;DHT22;2062;50.694;7.246;2023-05-13T04:39:07;11.90;61.80
4097;DHT22;2062;50.694;7.246;2023-05-13T04:41:34;11.90;62.10
4097;DHT22;2062;50.694;7.246;2023-05-13T04:44:01;11.90;61.80
4097;DHT22;2062;50.694;7.246;2023-05-13T04:46:30;11.90;61.50
4097;DHT22;2062;50.694;7.246;2023-05-13T04:48:58;11.90;61.80
4097;DHT22;2062;50.694;7.246;2023-05-13T04:51:25;11.90;62.20
4097;DHT22;2062;50.694;7.246;2023-05-13T04:53:52;11.90;62.10
4097;DHT22;2062;50.694;7.246;2023-05-13T04:56:19;11.90;62.60
4097;DHT22;2062;50.694;7.246;2023-05-13T04:58:46;11.90;62.60
4097;DHT22;2062;50.694;7.246;2023-05-13T05:01:13;11.90;62.90
4097;DHT22;2062;50.694;7.246;2023-05-13T05:03:40;11.90;62.60
4097;DHT22;2062;50.694;7.246;2023-05-13T05:06:08;11.90;62.80
4097;DHT22;2062;50.694;7.246;2023-05-13T05:08:34;11.90;62.80
4097;DHT22;2062;50.694;7.246;2023-05-13T05:11:01;11.90;62.90
4097;DHT22;2062;50.694;7.246;2023-05-13T05:13:28;11.90;62.70
4097;DHT22;2062;50.694;7.246;2023-05-13T05:15:55;11.90;62.60
4097;DHT22;2062;50.694;7.246;2023-05-13T05:18:22;11.90;62.50
4097;DHT22;2062;50.694;7.246;2023-05-13T05:20:49;11.90;62.30
4097;DHT22;2062;50.694;7.246;2023-05-13T05:23:17;12.00;62.50
4097;DHT22;2062;50.694;7.246;2023-05-13T05:25:44;12.00;62.80
4097;DHT22;2062;50.694;7.246;2023-05-13T05:28:10;12.00;62.80
4097;DHT22;2062;50.694;7.246;2023-05-13T05:30:38;12.00;62.50
4097;DHT22;2062;50.694;7.246;2023-05-13T05:33:05;12.00;62.60
4097;DHT22;2062;50.694;7.246;2023-05-13T05:35:31;12.10;62.60
4097;DHT22;2062;50.694;7.246;2023-05-13T05:38:01;12.10;62.80
4097;DHT22;2062;50.694;7.246;2023-05-13T05:40:30;12.10;63.30
4097;DHT22;2062;50.694;7.246;2023-05-13T05:42:57;12.20;63.80
4097;DHT22;2062;50.694;7.246;2023-05-13T05:45:24;12.20;63.90
4097;DHT22;2062;50.694;7.246;2023-05-13T05:47:51;12.30;63.90
4097;DHT22;2062;50.694;7.246;2023-05-13T05:50:18;12.30;63.80
4097;DHT22;2062;50.694;7.246;2023-05-13T05:52:45;12.30;63.70
4097;DHT22;2062;50.694;7.246;2023-05-13T05:55:12;12.40;63.70
4097;DHT22;2062;50.694;7.246;2023-05-13T05:57:40;12.50;63.80
4097;DHT22;2062;50.694;7.246;2023-05-13T06:00:08;12.60;63.90
4097;DHT22;2062;50.694;7.246;2023-05-13T06:02:35;12.70;63.70
4097;DHT22;2062;50.694;7.246;2023-05-13T06:05:01;12.90;63.80
4097;DHT22;2062;50.694;7.246;2023-05-13T06:07:28;13.00;64.30
4097;DHT22;2062;50.694;7.246;2023-05-13T06:09:55;13.20;64.40
4097;DHT22;2062;50.694;7.246;2023-05-13T06:12:22;13.40;64.70
4097;DHT22;2062;50.694;7.246;2023-05-13T06:14:50;13.60;64.90
4097;DHT22;2062;50.694;7.246;2023-05-13T06:17:17;13.80;65.10
4097;DHT22;2062;50.694;7.246;2023-05-13T06:19:44;13.90;65.40
4097;DHT22;2062;50.694;7.246;2023-05-13T06:22:11;14.10;65.60
4097;DHT22;2062;50.694;7.246;2023-05-13T06:24:37;14.30;65.70
4097;DHT22;2062;50.694;7.246;2023-05-13T06:27:07;14.50;65.70
4097;DHT22;2062;50.694;7.246;2023-05-13T06:29:34;14.80;65.50
4097;DHT22;2062;50.694;7.246;2023-05-13T06:32:02;15.00;65.60
4097;DHT22;2062;50.694;7.246;2023-05-13T06:34:29;15.20;65.10
4097;DHT22;2062;50.694;7.246;2023-05-13T06:36:56;15.40;65.00
4097;DHT22;2062;50.694;7.246;2023-05-13T06:39:23;15.70;64.80
4097;DHT22;2062;50.694;7.246;2023-05-13T06:41:50;15.90;64.70
4097;DHT22;2062;50.694;7.246;2023-05-13T06:44:17;16.00;64.00
4097;DHT22;2062;50.694;7.246;2023-05-13T06:46:44;16.30;63.50
4097;DHT22;2062;50.694;7.246;2023-05-13T06:49:12;16.50;63.00
4097;DHT22;2062;50.694;7.246;2023-05-13T06:51:39;16.70;62.70
4097;DHT22;2062;50.694;7.246;2023-05-13T06:54:05;16.90;62.10
4097;DHT22;2062;50.694;7.246;2023-05-13T06:56:33;16.90;61.60
4097;DHT22;2062;50.694;7.246;2023-05-13T06:59:00;17.30;61.30
4097;DHT22;2062;50.694;7.246;2023-05-13T07:01:26;17.50;60.50
4097;DHT22;2062;50.694;7.246;2023-05-13T07:03:53;17.70;60.40
4097;DHT22;2062;50.694;7.246;2023-05-13T07:06:21;17.90;59.70
4097;DHT22;2062;50.694;7.246;2023-05-13T07:08:48;18.10;58.90
4097;DHT22;2062;50.694;7.246;2023-05-13T07:11:15;18.40;58.80
4097;DHT22;2062;50.694;7.246;2023-05-13T07:13:42;18.40;58.70
4097;DHT22;2062;50.694;7.246;2023-05-13T07:16:09;18.60;57.70
4097;DHT22;2062;50.694;7.246;2023-05-13T07:18:36;18.70;57.00
4097;DHT22;2062;50.694;7.246;2023-05-13T07:21:03;18.90;56.70
4097;DHT22;2062;50.694;7.246;2023-05-13T07:23:32;19.10;56.40
4097;DHT22;2062;50.694;7.246;2023-05-13T07:26:00;19.20;56.00
4097;DHT22;2062;50.694;7.246;2023-05-13T07:28:27;19.30;55.50
4097;DHT22;2062;50.694;7.246;2023-05-13T07:30:54;19.40;54.70
4097;DHT22;2062;50.694;7.246;2023-05-13T07:33:20;19.50;54.50
4097;DHT22;2062;50.694;7.246;2023-05-13T07:35:47;19.60;54.40
4097;DHT22;2062;50.694;7.246;2023-05-13T07:38:14;19.70;54.50
4097;DHT22;2062;50.694;7.246;2023-05-13T07:40:42;19.80;54.50
4097;DHT22;2062;50.694;7.246;2023-05-13T07:43:09;19.90;54.30
4097;DHT22;2062;50.694;7.246;2023-05-13T07:45:36;20.10;53.70
4097;DHT22;2062;50.694;7.246;2023-05-13T07:48:03;20.10;53.80
4097;DHT22;2062;50.694;7.246;2023-05-13T07:50:31;20.30;53.40
4097;DHT22;2062;50.694;7.246;2023-05-13T07:52:57;20.40;53.20
4097;DHT22;2062;50.694;7.246;2023-05-13T07:55:24;20.50;52.40
4097;DHT22;2062;50.694;7.246;2023-05-13T07:57:52;20.60;52.40
4097;DHT22;2062;50.694;7.246;2023-05-13T08:00:19;20.80;53.20
4097;DHT22;2062;50.694;7.246;2023-05-13T08:02:46;21.00;53.20
4097;DHT22;2062;50.694;7.246;2023-05-13T08:05:13;21.10;52.60
4097;DHT22;2062;50.694;7.246;2023-05-13T08:07:40;21.30;52.60
4097;DHT22;2062;50.694;7.246;2023-05-13T08:10:07;21.40;52.20
4097;DHT22;2062;50.694;7.246;2023-05-13T08:12:34;21.60;51.20
4097;DHT22;2062;50.694;7.246;2023-05-13T08:15:03;21.70;50.50
4097;DHT22;2062;50.694;7.246;2023-05-13T08:17:30;21.80;51.00
4097;DHT22;2062;50.694;7.246;2023-05-13T08:19:57;22.00;50.50
4097;DHT22;2062;50.694;7.246;2023-05-13T08:22:24;22.20;49.90
4097;DHT22;2062;50.694;7.246;2023-05-13T08:24:51;22.30;50.70
4097;DHT22;2062;50.694;7.246;2023-05-13T08:27:18;22.40;49.60
4097;DHT22;2062;50.694;7.246;2023-05-13T08:29:45;22.50;49.80
4097;DHT22;2062;50.694;7.246;2023-05-13T08:32:13;22.60;49.00
4097;DHT22;2062;50.694;7.246;2023-05-13T08:34:40;22.80;46.90
4097;DHT22;2062;50.694;7.246;2023-05-13T08:37:07;22.80;47.20
4097;DHT22;2062;50.694;7.246;2023-05-13T08:39:33;22.90;47.30
4097;DHT22;2062;50.694;7.246;2023-05-13T08:42:02;23.10;48.80
4097;DHT22;2062;50.694;7.246;2023-05-13T08:44:31;23.20;48.70
4097;DHT22;2062;50.694;7.246;2023-05-13T08:47:03;23.30;46.50
4097;DHT22;2062;50.694;7.246;2023-05-13T08:49:35;23.40;46.80
4097;DHT22;2062;50.694;7.246;2023-05-13T08:52:01;23.50;45.60
4097;DHT22;2062;50.694;7.246;2023-05-13T08:54:28;23.50;45.40
4097;DHT22;2062;50.694;7.246;2023-05-13T08:56:56;23.60;45.60
4097;DHT22;2062;50.694;7.246;2023-05-13T08:59:22;23.60;44.00
4097;DHT22;2062;50.694;7.246;2023-05-13T09:01:49;23.70;43.50
4097;DHT22;2062;50.694;7.246;2023-05-13T09:04:18;23.80;45.30
4097;DHT22;2062;50.694;7.246;2023-05-13T09:06:47;23.90;43.90
4097;DHT22;2062;50.694;7.246;2023-05-13T09:09:14;23.90;45.60
4097;DHT22;2062;50.694;7.246;2023-05-13T09:11:41;24.00;45.60
4097;DHT22;2062;50.694;7.246;2023-05-13T09:14:08;24.10;43.90
4097;DHT22;2062;50.694;7.246;2023-05-13T09:16:37;24.20;43.70
4097;DHT22;2062;50.694;7.246;2023-05-13T09:19:05;24.30;43.40
4097;DHT22;2062;50.694;7.246;2023-05-13T09:21:33;24.40;44.20
4097;DHT22;2062;50.694;7.246;2023-05-13T09:24:10;24.50;43.30
4097;DHT22;2062;50.694;7.246;2023-05-13T09:26:37;24.50;43.10
4097;DHT22;2062;50.694;7.246;2023-05-13T09:29:21;24.60;44.30
4097;DHT22;2062;50.694;7.246;2023-05-13T09:31:50;24.70;43.30
4097;DHT22;2062;50.694;7.246;2023-05-13T09:34:25;24.90;42.90
4097;DHT22;2062;50.694;7.246;2023-05-13T09:36:57;24.90;45.10
4097;DHT22;2062;50.694;7.246;2023-05-13T09:39:25;25.00;45.40
4097;DHT22;2062;50.694;7.246;2023-05-13T09:41:52;25.20;46.00
4097;DHT22;2062;50.694;7.246;2023-05-13T09:44:20;25.20;45.30
4097;DHT22;2062;50.694;7.246;2023-05-13T09:46:49;25.30;43.50
4097;DHT22;2062;50.694;7.246;2023-05-13T09:49:16;25.30;43.80
4097;DHT22;2062;50.694;7.246;2023-05-13T09:51:43;25.40;45.00
4097;DHT22;2062;50.694;7.246;2023-05-13T09:54:10;25.50;42.90
4097;DHT22;2062;50.694;7.246;2023-05-13T09:56:38;25.60;42.50
4097;DHT22;2062;50.694;7.246;2023-05-13T09:59:05;25.60;42.00
4097;DHT22;2062;50.694;7.246;2023-05-13T10:01:34;25.80;42.10
4097;DHT22;2062;50.694;7.246;2023-05-13T10:04:01;25.80;43.00
4097;DHT22;2062;50.694;7.246;2023-05-13T10:06:30;25.90;41.10
4097;DHT22;2062;50.694;7.246;2023-05-13T10:08:59;25.90;41.40
4097;DHT22;2062;50.694;7.246;2023-05-13T10:11:29;26.10;43.70
4097;DHT22;2062;50.694;7.246;2023-05-13T10:14:00;26.20;43.30
4097;DHT22;2062;50.694;7.246;2023-05-13T10:16:27;26.30;44.00
4097;DHT22;2062;50.694;7.246;2023-05-13T10:18:56;26.40;41.10
4097;DHT22;2062;50.694;7.246;2023-05-13T10:21:24;26.50;41.10
4097;DHT22;2062;50.694;7.246;2023-05-13T10:23:51;26.50;40.80
4097;DHT22;2062;50.694;7.246;2023-05-13T10:26:19;26.60;41.60
4097;DHT22;2062;50.694;7.246;2023-05-13T10:28:47;26.70;40.90
4097;DHT22;2062;50.694;7.246;2023-05-13T10:31:15;26.80;41.90
4097;DHT22;2062;50.694;7.246;2023-05-13T10:33:43;26.90;41.10
4097;DHT22;2062;50.694;7.246;2023-05-13T10:36:19;27.00;41.90
4097;DHT22;2062;50.694;7.246;2023-05-13T10:39:15;27.10;40.80
4097;DHT22;2062;50.694;7.246;2023-05-13T10:44:43;27.20;39.90
4097;DHT22;2062;50.694;7.246;2023-05-13T10:47:11;27.30;41.10
4097;DHT22;2062;50.694;7.246;2023-05-13T10:49:38;27.40;40.60
4097;DHT22;2062;50.694;7.246;2023-05-13T10:52:06;27.40;40.90
4097;DHT22;2062;50.694;7.246;2023-05-13T10:54:36;27.40;40.10
4097;DHT22;2062;50.694;7.246;2023-05-13T10:57:05;27.30;38.70
4097;DHT22;2062;50.694;7.246;2023-05-13T10:59:32;27.20;37.90
4097;DHT22;2062;50.694;7.246;2023-05-13T11:02:00;27.20;37.60
4097;DHT22;2062;50.694;7.246;2023-05-13T11:04:29;26.90;36.50
4097;DHT22;2062;50.694;7.246;2023-05-13T11:07:13;26.80;37.00
4097;DHT22;2062;50.694;7.246;2023-05-13T11:09:48;26.50;36.80
4097;DHT22;2062;50.694;7.246;2023-05-13T11:12:15;26.30;37.10
4097;DHT22;2062;50.694;7.246;2023-05-13T11:14:42;26.10;37.40
4097;DHT22;2062;50.694;7.246;2023-05-13T11:17:10;25.80;36.00
4097;DHT22;2062;50.694;7.246;2023-05-13T11:19:45;25.50;36.90
4097;DHT22;2062;50.694;7.246;2023-05-13T11:22:14;25.30;36.60
4097;DHT22;2062;50.694;7.246;2023-05-13T11:24:44;24.90;37.10
4097;DHT22;2062;50.694;7.246;2023-05-13T11:27:13;24.40;37.40
4097;DHT22;2062;50.694;7.246;2023-05-13T11:29:47;24.10;37.70
4097;DHT22;2062;50.694;7.246;2023-05-13T11:32:15;23.70;37.20
4097;DHT22;2062;50.694;7.246;2023-05-13T11:35:04;23.40;37.80
4097;DHT22;2062;50.694;7.246;2023-05-13T11:37:32;23.00;38.00
4097;DHT22;2062;50.694;7.246;2023-05-13T11:39:59;22.60;38.60
4097;DHT22;2062;50.694;7.246;2023-05-13T11:42:27;22.30;39.40
4097;DHT22;2062;50.694;7.246;2023-05-13T11:44:55;22.00;39.50
4097;DHT22;2062;50.694;7.246;2023-05-13T11:47:25;21.70;39.90
4097;DHT22;2062;50.694;7.246;2023-05-13T11:49:52;21.40;40.60
4097;DHT22;2062;50.694;7.246;2023-05-13T11:52:21;21.20;41.30
4097;DHT22;2062;50.694;7.246;2023-05-13T11:54:51;20.90;41.50
4097;DHT22;2062;50.694;7.246;2023-05-13T11:57:19;20.70;41.40
4097;DHT22;2062;50.694;7.246;2023-05-13T11:59:53;20.50;41.40
4097;DHT22;2062;50.694;7.246;2023-05-13T12:02:21;20.20;42.00
4097;DHT22;2062;50.694;7.246;2023-05-13T12:04:49;20.00;42.60
4097;DHT22;2062;50.694;7.246;2023-05-13T12:07:19;19.80;43.20
4097;DHT22;2062;50.694;7.246;2023-05-13T12:09:47;19.70;43.70
4097;DHT22;2062;50.694;7.246;2023-05-13T12:12:14;19.60;43.80
4097;DHT22;2062;50.694;7.246;2023-05-13T12:14:42;19.40;44.00
4097;DHT22;2062;50.694;7.246;2023-05-13T12:17:11;19.20;44.20
4097;DHT22;2062;50.694;7.246;2023-05-13T12:19:38;19.20;44.50
4097;DHT22;2062;50.694;7.246;2023-05-13T12:22:04;19.00;45.10
4097;DHT22;2062;50.694;7.246;2023-05-13T12:24:32;18.90;45.50
4097;DHT22;2062;50.694;7.246;2023-05-13T12:27:05;18.80;45.70
4097;DHT22;2062;50.694;7.246;2023-05-13T12:29:39;18.70;47.00
4097;DHT22;2062;50.694;7.246;2023-05-13T12:32:07;18.60;48.30
4097;DHT22;2062;50.694;7.246;2023-05-13T12:34:36;18.60;47.40
4097;DHT22;2062;50.694;7.246;2023-05-13T12:37:10;18.60;47.50
4097;DHT22;2062;50.694;7.246;2023-05-13T12:39:37;18.60;47.50
4097;DHT22;2062;50.694;7.246;2023-05-13T12:42:12;18.50;48.00
4097;DHT22;2062;50.694;7.246;2023-05-13T12:44:40;18.50;48.60
4097;DHT22;2062;50.694;7.246;2023-05-13T12:47:07;18.50;48.40
4097;DHT22;2062;50.694;7.246;2023-05-13T12:49:35;18.50;48.40
4097;DHT22;2062;50.694;7.246;2023-05-13T12:52:16;18.50;48.30
4097;DHT22;2062;50.694;7.246;2023-05-13T12:54:43;18.50;48.30
4097;DHT22;2062;50.694;7.246;2023-05-13T12:57:11;18.50;48.90
4097;DHT22;2062;50.694;7.246;2023-05-13T12:59:38;18.60;49.00
4097;DHT22;2062;50.694;7.246;2023-05-13T13:02:05;18.70;48.90
4097;DHT22;2062;50.694;7.246;2023-05-13T13:04:32;18.70;48.80
4097;DHT22;2062;50.694;7.246;2023-05-13T13:06:59;18.80;49.00
4097;DHT22;2062;50.694;7.246;2023-05-13T13:09:26;18.90;48.80
4097;DHT22;2062;50.694;7.246;2023-05-13T13:11:53;18.90;48.90
4097;DHT22;2062;50.694;7.246;2023-05-13T13:14:21;19.00;48.90
4097;DHT22;2062;50.694;7.246;2023-05-13T13:16:50;18.90;48.80
4097;DHT22;2062;50.694;7.246;2023-05-13T13:19:17;19.00;48.80
4097;DHT22;2062;50.694;7.246;2023-05-13T13:21:44;19.00;48.80
4097;DHT22;2062;50.694;7.246;2023-05-13T13:24:11;19.00;49.30
4097;DHT22;2062;50.694;7.246;2023-05-13T13:26:38;19.20;49.40
4097;DHT22;2062;50.694;7.246;2023-05-13T13:29:05;19.20;49.40
4097;DHT22;2062;50.694;7.246;2023-05-13T13:31:33;19.20;49.10
4097;DHT22;2062;50.694;7.246;2023-05-13T13:33:59;19.40;49.40
4097;DHT22;2062;50.694;7.246;2023-05-13T13:36:28;19.50;49.10
4097;DHT22;2062;50.694;7.246;2023-05-13T13:38:56;19.60;49.30
4097;DHT22;2062;50.694;7.246;2023-05-13T13:41:22;19.80;49.40
4097;DHT22;2062;50.694;7.246;2023-05-13T13:43:50;19.90;49.30
4097;DHT22;2062;50.694;7.246;2023-05-13T13:46:17;20.10;49.20
4097;DHT22;2062;50.694;7.246;2023-05-13T13:48:45;20.20;49.10
4097;DHT22;2062;50.694;7.246;2023-05-13T13:51:12;20.30;49.00
4097;DHT22;2062;50.694;7.246;2023-05-13T13:53:39;20.40;49.30
4097;DHT22;2062;50.694;7.246;2023-05-13T13:56:06;20.60;49.20
4097;DHT22;2062;50.694;7.246;2023-05-13T13:58:33;20.80;49.30
4097;DHT22;2062;50.694;7.246;2023-05-13T14:01:00;20.90;49.10
4097;DHT22;2062;50.694;7.246;2023-05-13T14:03:26;21.00;48.80
4097;DHT22;2062;50.694;7.246;2023-05-13T14:05:54;21.20;48.70
4097;DHT22;2062;50.694;7.246;2023-05-13T14:08:21;21.20;48.70
4097;DHT22;2062;50.694;7.246;2023-05-13T14:10:49;21.30;48.20
4097;DHT22;2062;50.694;7.246;2023-05-13T14:13:17;21.40;48.20
4097;DHT22;2062;50.694;7.246;2023-05-13T14:15:43;21.40;48.00
4097;DHT22;2062;50.694;7.246;2023-05-13T14:18:10;21.40;47.10
4097;DHT22;2062;50.694;7.246;2023-05-13T14:20:37;21.40;46.50
4097;DHT22;2062;50.694;7.246;2023-05-13T14:23:05;21.30;46.30
4097;DHT22;2062;50.694;7.246;2023-05-13T14:25:32;21.30;46.50
4097;DHT22;2062;50.694;7.246;2023-05-13T14:27:59;21.20;46.60
4097;DHT22;2062;50.694;7.246;2023-05-13T14:30:25;21.20;46.10
4097;DHT22;2062;50.694;7.246;2023-05-13T14:32:52;21.20;46.90
4097;DHT22;2062;50.694;7.246;2023-05-13T14:35:19;21.20;46.80
4097;DHT22;2062;50.694;7.246;2023-05-13T14:37:46;21.20;46.70
4097;DHT22;2062;50.694;7.246;2023-05-13T14:40:15;21.30;46.80
4097;DHT22;2062;50.694;7.246;2023-05-13T14:42:42;21.30;47.10
4097;DHT22;2062;50.694;7.246;2023-05-13T14:45:09;21.40;47.50
4097;DHT22;2062;50.694;7.246;2023-05-13T14:47:36;21.60;47.50
4097;DHT22;2062;50.694;7.246;2023-05-13T14:50:04;21.70;47.60
4097;DHT22;2062;50.694;7.246;2023-05-13T14:52:31;21.80;47.20
4097;DHT22;2062;50.694;7.246;2023-05-13T14:54:58;21.90;47.40
4097;DHT22;2062;50.694;7.246;2023-05-13T14:57:26;22.00;46.70
4097;DHT22;2062;50.694;7.246;2023-05-13T14:59:53;22.00;46.80
4097;DHT22;2062;50.694;7.246;2023-05-13T15:02:20;22.10;46.50
4097;DHT22;2062;50.694;7.246;2023-05-13T15:04:47;22.10;46.10
4097;DHT22;2062;50.694;7.246;2023-05-13T15:07:14;22.10;45.20
4097;DHT22;2062;50.694;7.246;2023-05-13T15:09:40;22.20;45.40
4097;DHT22;2062;50.694;7.246;2023-05-13T15:12:08;22.20;45.70
4097;DHT22;2062;50.694;7.246;2023-05-13T15:14:36;22.20;45.30
4097;DHT22;2062;50.694;7.246;2023-05-13T15:17:04;22.10;45.20
4097;DHT22;2062;50.694;7.246;2023-05-13T15:19:35;22.20;45.30
4097;DHT22;2062;50.694;7.246;2023-05-13T15:22:01;22.20;45.40
4097;DHT22;2062;50.694;7.246;2023-05-13T15:24:30;22.30;45.50
4097;DHT22;2062;50.694;7.246;2023-05-13T15:26:57;22.40;45.50
4097;DHT22;2062;50.694;7.246;2023-05-13T15:29:23;22.40;45.50
4097;DHT22;2062;50.694;7.246;2023-05-13T15:31:51;22.50;45.60
4097;DHT22;2062;50.694;7.246;2023-05-13T15:34:19;22.60;45.30
4097;DHT22;2062;50.694;7.246;2023-05-13T15:36:46;22.70;45.20
4097;DHT22;2062;50.694;7.246;2023-05-13T15:39:13;22.80;45.40
4097;DHT22;2062;50.694;7.246;2023-05-13T15:41:41;22.90;45.30
4097;DHT22;2062;50.694;7.246;2023-05-13T15:44:07;23.00;45.10
4097;DHT22;2062;50.694;7.246;2023-05-13T15:46:34;23.10;44.60
4097;DHT22;2062;50.694;7.246;2023-05-13T15:49:02;23.20;44.80
4097;DHT22;2062;50.694;7.246;2023-05-13T15:51:29;23.30;44.50
4097;DHT22;2062;50.694;7.246;2023-05-13T15:53:56;23.40;44.00
4097;DHT22;2062;50.694;7.246;2023-05-13T15:56:24;23.40;43.40
4097;DHT22;2062;50.694;7.246;2023-05-13T15:58:51;23.40;42.70
4097;DHT22;2062;50.694;7.246;2023-05-13T16:01:20;23.40;42.90
4097;DHT22;2062;50.694;7.246;2023-05-13T16:03:47;23.30;42.30
4097;DHT22;2062;50.694;7.246;2023-05-13T16:06:16;23.20;41.60
4097;DHT22;2062;50.694;7.246;2023-05-13T16:08:42;23.20;41.80